sensor_id;sensor_type;location;lat;lon;timestamp;P1;durP1;ratioP1;P2;durP2;ratioP2
12623;SDS011;6377;42.836;23.998;2023-06-14T00:02:20;9.13;;;7.40;;
12623;SDS011;6377;42.836;23.998;2023-06-14T00:04:47;10.30;;;6.87;;
12623;SDS011;6377;42.836;23.998;2023-06-14T00:07:17;9.27;;;6.80;;
12623;SDS011;6377;42.836;23.998;2023-06-14T00:09:46;9.17;;;6.50;;
12623;SDS011;6377;42.836;23.998;2023-06-14T00:12:14;9.27;;;7.13;;
12623;SDS011;6377;42.836;23.998;2023-06-14T00:14:41;9.43;;;7.37;;
12623;SDS011;6377;42.836;23.998;2023-06-14T00:17:08;9.87;;;6.30;;
12623;SDS011;6377;42.836;23.998;2023-06-14T00:19:36;7.97;;;5.97;;
12623;SDS011;6377;42.836;23.998;2023-06-14T00:22:04;7.57;;;6.00;;
12623;SDS011;6377;42.836;23.998;2023-06-14T00:24:32;9.50;;;6.43;;
12623;SDS011;6377;42.836;23.998;2023-06-14T00:27:00;9.47;;;6.77;;
12623;SDS011;6377;42.836;23.998;2023-06-14T00:29:28;8.17;;;6.23;;
12623;SDS011;6377;42.836;23.998;2023-06-14T00:31:55;10.00;;;6.30;;
12623;SDS011;6377;42.836;23.998;2023-06-14T00:34:22;9.90;;;6.63;;
12623;SDS011;6377;42.836;23.998;2023-06-14T00:36:50;9.63;;;6.83;;
12623;SDS011;6377;42.836;23.998;2023-06-14T00:39:17;8.33;;;6.23;;
12623;SDS011;6377;42.836;23.998;2023-06-14T00:41:44;8.10;;;5.80;;
12623;SDS011;6377;42.836;23.998;2023-06-14T00:44:13;8.57;;;5.73;;
12623;SDS011;6377;42.836;23.998;2023-06-14T00:46:43;12.40;;;7.07;;
12623;SDS011;6377;42.836;23.998;2023-06-14T00:49:11;8.27;;;5.73;;
12623;SDS011;6377;42.836;23.998;2023-06-14T00:51:41;6.47;;;5.43;;
12623;SDS011;6377;42.836;23.998;2023-06-14T00:54:09;8.33;;;5.70;;
12623;SDS011;6377;42.836;23.998;2023-06-14T00:56:37;8.93;;;5.63;;
12623;SDS011;6377;42.836;23.998;2023-06-14T00:59:05;6.37;;;5.43;;
12623;SDS011;6377;42.836;23.998;2023-06-14T01:01:34;6.13;;;4.63;;
12623;SDS011;6377;42.836;23.998;2023-06-14T01:04:02;7.30;;;5.47;;
12623;SDS011;6377;42.836;23.998;2023-06-14T01:06:31;8.13;;;4.70;;
12623;SDS011;6377;42.836;23.998;2023-06-14T01:09:09;7.23;;;5.10;;
12623;SDS011;6377;42.836;23.998;2023-06-14T01:11:45;6.60;;;4.97;;
12623;SDS011;6377;42.836;23.998;2023-06-14T01:14:20;6.80;;;4.83;;
12623;SDS011;6377;42.836;23.998;2023-06-14T01:16:50;5.43;;;4.93;;
12623;SDS011;6377;42.836;23.998;2023-06-14T01:19:19;5.93;;;4.80;;
12623;SDS011;6377;42.836;23.998;2023-06-14T01:21:51;7.50;;;5.97;;
12623;SDS011;6377;42.836;23.998;2023-06-14T01:24:19;5.50;;;4.73;;
12623;SDS011;6377;42.836;23.998;2023-06-14T01:26:51;5.50;;;4.17;;
12623;SDS011;6377;42.836;23.998;2023-06-14T01:29:22;7.43;;;5.67;;
12623;SDS011;6377;42.836;23.998;2023-06-14T01:31:50;5.83;;;5.10;;
12623;SDS011;6377;42.836;23.998;2023-06-14T01:34:18;8.37;;;5.53;;
12623;SDS011;6377;42.836;23.998;2023-06-14T01:36:45;9.90;;;4.90;;
12623;SDS011;6377;42.836;23.998;2023-06-14T01:39:14;7.53;;;5.37;;
12623;SDS011;6377;42.836;23.998;2023-06-14T01:41:43;8.13;;;5.97;;
12623;SDS011;6377;42.836;23.998;2023-06-14T01:44:14;12.77;;;7.27;;
12623;SDS011;6377;42.836;23.998;2023-06-14T01:46:42;8.80;;;7.10;;
12623;SDS011;6377;42.836;23.998;2023-06-14T01:49:10;7.20;;;6.10;;
12623;SDS011;6377;42.836;23.998;2023-06-14T01:51:38;10.70;;;8.53;;
12623;SDS011;6377;42.836;23.998;2023-06-14T01:54:05;9.63;;;6.93;;
12623;SDS011;6377;42.836;23.998;2023-06-14T01:56:33;10.93;;;8.13;;
12623;SDS011;6377;42.836;23.998;2023-06-14T01:59:02;10.17;;;7.57;;
12623;SDS011;6377;42.836;23.998;2023-06-14T02:01:29;12.90;;;7.13;;
12623;SDS011;6377;42.836;23.998;2023-06-14T02:03:56;13.40;;;8.87;;
12623;SDS011;6377;42.836;23.998;2023-06-14T02:06:24;9.33;;;6.97;;
12623;SDS011;6377;42.836;23.998;2023-06-14T02:08:53;11.13;;;7.97;;
12623;SDS011;6377;42.836;23.998;2023-06-14T02:11:20;12.80;;;7.33;;
12623;SDS011;6377;42.836;23.998;2023-06-14T02:13:49;11.13;;;7.57;;
12623;SDS011;6377;42.836;23.998;2023-06-14T02:16:17;10.93;;;7.30;;
12623;SDS011;6377;42.836;23.998;2023-06-14T02:18:45;8.20;;;6.70;;
12623;SDS011;6377;42.836;23.998;2023-06-14T02:21:12;8.63;;;6.70;;
12623;SDS011;6377;42.836;23.998;2023-06-14T02:23:39;9.47;;;7.17;;
12623;SDS011;6377;42.836;23.998;2023-06-14T02:26:07;9.20;;;6.73;;
12623;SDS011;6377;42.836;23.998;2023-06-14T02:28:34;6.97;;;5.93;;
12623;SDS011;6377;42.836;23.998;2023-06-14T02:31:02;8.23;;;5.67;;
12623;SDS011;6377;42.836;23.998;2023-06-14T02:33:30;8.17;;;5.83;;
12623;SDS011;6377;42.836;23.998;2023-06-14T02:35:58;7.33;;;5.73;;
12623;SDS011;6377;42.836;23.998;2023-06-14T02:38:25;8.13;;;5.63;;
12623;SDS011;6377;42.836;23.998;2023-06-14T02:40:52;7.40;;;5.60;;
12623;SDS011;6377;42.836;23.998;2023-06-14T02:43:20;6.70;;;5.07;;
12623;SDS011;6377;42.836;23.998;2023-06-14T02:45:47;7.10;;;5.33;;
12623;SDS011;6377;42.836;23.998;2023-06-14T02:48:15;8.27;;;5.67;;
12623;SDS011;6377;42.836;23.998;2023-06-14T02:50:43;6.27;;;4.90;;
12623;SDS011;6377;42.836;23.998;2023-06-14T02:53:11;8.33;;;5.10;;
12623;SDS011;6377;42.836;23.998;2023-06-14T02:55:38;5.77;;;4.33;;
12623;SDS011;6377;42.836;23.998;2023-06-14T02:58:05;6.20;;;5.30;;
12623;SDS011;6377;42.836;23.998;2023-06-14T03:00:33;8.43;;;5.33;;
12623;SDS011;6377;42.836;23.998;2023-06-14T03:03:00;5.63;;;4.73;;
12623;SDS011;6377;42.836;23.998;2023-06-14T03:05:27;7.80;;;5.33;;
12623;SDS011;6377;42.836;23.998;2023-06-14T03:07:56;10.23;;;5.77;;
12623;SDS011;6377;42.836;23.998;2023-06-14T03:10:23;7.23;;;5.17;;
12623;SDS011;6377;42.836;23.998;2023-06-14T03:12:54;5.57;;;4.40;;
12623;SDS011;6377;42.836;23.998;2023-06-14T03:15:21;6.17;;;4.73;;
12623;SDS011;6377;42.836;23.998;2023-06-14T03:17:50;8.43;;;5.13;;
12623;SDS011;6377;42.836;23.998;2023-06-14T03:20:19;7.67;;;4.53;;
12623;SDS011;6377;42.836;23.998;2023-06-14T03:22:46;7.47;;;5.00;;
12623;SDS011;6377;42.836;23.998;2023-06-14T03:25:15;6.73;;;4.97;;
12623;SDS011;6377;42.836;23.998;2023-06-14T03:27:44;4.90;;;4.30;;
12623;SDS011;6377;42.836;23.998;2023-06-14T03:30:11;9.80;;;5.00;;
12623;SDS011;6377;42.836;23.998;2023-06-14T03:32:39;6.00;;;4.80;;
12623;SDS011;6377;42.836;23.998;2023-06-14T03:35:06;7.60;;;4.90;;
12623;SDS011;6377;42.836;23.998;2023-06-14T03:37:35;6.37;;;4.80;;
12623;SDS011;6377;42.836;23.998;2023-06-14T03:40:02;6.40;;;4.77;;
12623;SDS011;6377;42.836;23.998;2023-06-14T03:42:34;6.07;;;4.87;;
12623;SDS011;6377;42.836;23.998;2023-06-14T03:45:01;9.57;;;5.20;;
12623;SDS011;6377;42.836;23.998;2023-06-14T03:47:28;9.43;;;5.13;;
12623;SDS011;6377;42.836;23.998;2023-06-14T03:49:55;12.50;;;5.23;;
12623;SDS011;6377;42.836;23.998;2023-06-14T03:52:23;5.30;;;4.80;;
12623;SDS011;6377;42.836;23.998;2023-06-14T03:54:50;5.77;;;4.20;;
12623;SDS011;6377;42.836;23.998;2023-06-14T03:57:17;9.97;;;5.20;;
12623;SDS011;6377;42.836;23.998;2023-06-14T03:59:46;5.50;;;4.10;;
12623;SDS011;6377;42.836;23.998;2023-06-14T04:02:14;4.23;;;3.83;;
12623;SDS011;6377;42.836;23.998;2023-06-14T04:04:41;7.30;;;4.73;;
12623;SDS011;6377;42.836;23.998;2023-06-14T04:07:10;4.87;;;3.77;;
12623;SDS011;6377;42.836;23.998;2023-06-14T04:09:38;5.00;;;4.10;;
12623;SDS011;6377;42.836;23.998;2023-06-14T04:12:05;5.17;;;4.23;;
12623;SDS011;6377;42.836;23.998;2023-06-14T04:14:34;5.77;;;4.70;;
12623;SDS011;6377;42.836;23.998;2023-06-14T04:17:03;5.70;;;4.50;;
12623;SDS011;6377;42.836;23.998;2023-06-14T04:19:30;5.30;;;4.47;;
12623;SDS011;6377;42.836;23.998;2023-06-14T04:21:58;4.97;;;3.90;;
12623;SDS011;6377;42.836;23.998;2023-06-14T04:24:26;6.70;;;4.50;;
12623;SDS011;6377;42.836;23.998;2023-06-14T04:26:57;5.57;;;4.47;;
12623;SDS011;6377;42.836;23.998;2023-06-14T04:29:26;5.80;;;4.77;;
12623;SDS011;6377;42.836;23.998;2023-06-14T04:31:54;5.90;;;4.40;;
12623;SDS011;6377;42.836;23.998;2023-06-14T04:34:26;6.23;;;5.00;;
12623;SDS011;6377;42.836;23.998;2023-06-14T04:36:57;7.50;;;4.57;;
12623;SDS011;6377;42.836;23.998;2023-06-14T04:39:26;5.70;;;3.87;;
12623;SDS011;6377;42.836;23.998;2023-06-14T04:41:54;4.87;;;4.10;;
12623;SDS011;6377;42.836;23.998;2023-06-14T04:44:22;4.73;;;3.47;;
12623;SDS011;6377;42.836;23.998;2023-06-14T04:46:55;4.57;;;3.90;;
12623;SDS011;6377;42.836;23.998;2023-06-14T04:49:23;4.37;;;3.20;;
12623;SDS011;6377;42.836;23.998;2023-06-14T04:51:54;3.97;;;3.37;;
12623;SDS011;6377;42.836;23.998;2023-06-14T04:54:24;4.67;;;3.70;;
12623;SDS011;6377;42.836;23.998;2023-06-14T04:56:51;5.13;;;3.37;;
12623;SDS011;6377;42.836;23.998;2023-06-14T04:59:20;4.47;;;3.50;;
12623;SDS011;6377;42.836;23.998;2023-06-14T05:01:48;4.33;;;3.30;;
12623;SDS011;6377;42.836;23.998;2023-06-14T05:04:15;4.23;;;2.80;;
12623;SDS011;6377;42.836;23.998;2023-06-14T05:06:43;3.67;;;3.10;;
12623;SDS011;6377;42.836;23.998;2023-06-14T05:09:14;2.97;;;2.63;;
12623;SDS011;6377;42.836;23.998;2023-06-14T05:11:42;3.63;;;2.50;;
12623;SDS011;6377;42.836;23.998;2023-06-14T05:14:10;2.30;;;2.10;;
12623;SDS011;6377;42.836;23.998;2023-06-14T05:16:37;4.27;;;2.53;;
12623;SDS011;6377;42.836;23.998;2023-06-14T05:19:04;2.80;;;2.20;;
12623;SDS011;6377;42.836;23.998;2023-06-14T05:21:32;3.57;;;2.20;;
12623;SDS011;6377;42.836;23.998;2023-06-14T05:24:00;2.50;;;2.30;;
12623;SDS011;6377;42.836;23.998;2023-06-14T05:26:29;9.43;;;2.57;;
12623;SDS011;6377;42.836;23.998;2023-06-14T05:28:56;3.53;;;2.30;;
12623;SDS011;6377;42.836;23.998;2023-06-14T05:31:25;4.07;;;3.00;;
12623;SDS011;6377;42.836;23.998;2023-06-14T05:33:53;4.13;;;3.10;;
12623;SDS011;6377;42.836;23.998;2023-06-14T05:36:20;3.73;;;3.17;;
12623;SDS011;6377;42.836;23.998;2023-06-14T05:38:48;4.70;;;3.40;;
12623;SDS011;6377;42.836;23.998;2023-06-14T05:41:15;4.77;;;3.57;;
12623;SDS011;6377;42.836;23.998;2023-06-14T05:43:44;4.30;;;3.53;;
12623;SDS011;6377;42.836;23.998;2023-06-14T05:46:12;4.03;;;3.40;;
12623;SDS011;6377;42.836;23.998;2023-06-14T05:48:40;4.43;;;3.30;;
12623;SDS011;6377;42.836;23.998;2023-06-14T05:51:07;3.70;;;2.60;;
12623;SDS011;6377;42.836;23.998;2023-06-14T05:53:35;2.87;;;2.57;;
12623;SDS011;6377;42.836;23.998;2023-06-14T05:56:02;2.97;;;2.63;;
12623;SDS011;6377;42.836;23.998;2023-06-14T05:58:30;3.60;;;2.63;;
12623;SDS011;6377;42.836;23.998;2023-06-14T06:00:58;4.70;;;3.07;;
12623;SDS011;6377;42.836;23.998;2023-06-14T06:03:26;3.20;;;2.80;;
12623;SDS011;6377;42.836;23.998;2023-06-14T06:05:54;2.67;;;2.47;;
12623;SDS011;6377;42.836;23.998;2023-06-14T06:08:22;8.83;;;6.07;;
12623;SDS011;6377;42.836;23.998;2023-06-14T06:10:49;3.33;;;2.87;;
12623;SDS011;6377;42.836;23.998;2023-06-14T06:13:17;2.43;;;2.10;;
12623;SDS011;6377;42.836;23.998;2023-06-14T06:15:44;2.13;;;1.93;;
12623;SDS011;6377;42.836;23.998;2023-06-14T06:18:13;3.00;;;2.20;;
12623;SDS011;6377;42.836;23.998;2023-06-14T06:20:40;2.73;;;2.37;;
12623;SDS011;6377;42.836;23.998;2023-06-14T06:23:09;4.23;;;2.43;;
12623;SDS011;6377;42.836;23.998;2023-06-14T06:25:36;5.10;;;2.47;;
12623;SDS011;6377;42.836;23.998;2023-06-14T06:28:03;2.40;;;2.20;;
12623;SDS011;6377;42.836;23.998;2023-06-14T06:30:31;2.00;;;1.80;;
12623;SDS011;6377;42.836;23.998;2023-06-14T06:32:58;2.60;;;1.90;;
12623;SDS011;6377;42.836;23.998;2023-06-14T06:35:27;3.50;;;2.10;;
12623;SDS011;6377;42.836;23.998;2023-06-14T06:37:55;2.10;;;1.90;;
12623;SDS011;6377;42.836;23.998;2023-06-14T06:40:22;2.30;;;2.10;;
12623;SDS011;6377;42.836;23.998;2023-06-14T06:42:50;3.83;;;1.90;;
12623;SDS011;6377;42.836;23.998;2023-06-14T06:45:17;2.10;;;1.90;;
12623;SDS011;6377;42.836;23.998;2023-06-14T06:47:44;2.53;;;2.27;;
12623;SDS011;6377;42.836;23.998;2023-06-14T06:50:11;2.53;;;2.30;;
12623;SDS011;6377;42.836;23.998;2023-06-14T06:52:40;2.50;;;2.10;;
12623;SDS011;6377;42.836;23.998;2023-06-14T06:55:08;2.50;;;2.30;;
12623;SDS011;6377;42.836;23.998;2023-06-14T06:57:36;2.70;;;2.50;;
12623;SDS011;6377;42.836;23.998;2023-06-14T07:00:04;3.00;;;2.50;;
12623;SDS011;6377;42.836;23.998;2023-06-14T07:02:34;2.37;;;2.17;;
12623;SDS011;6377;42.836;23.998;2023-06-14T07:05:02;5.40;;;2.30;;
12623;SDS011;6377;42.836;23.998;2023-06-14T07:07:29;5.70;;;2.30;;
12623;SDS011;6377;42.836;23.998;2023-06-14T07:09:58;2.97;;;2.27;;
12623;SDS011;6377;42.836;23.998;2023-06-14T07:12:25;4.20;;;2.83;;
12623;SDS011;6377;42.836;23.998;2023-06-14T07:14:53;2.78;;;2.40;;
12623;SDS011;6377;42.836;23.998;2023-06-14T07:17:21;4.90;;;2.80;;
12623;SDS011;6377;42.836;23.998;2023-06-14T07:19:48;2.97;;;2.67;;
12623;SDS011;6377;42.836;23.998;2023-06-14T07:32:38;4.17;;;3.40;;
12623;SDS011;6377;42.836;23.998;2023-06-14T07:35:06;4.30;;;3.50;;
12623;SDS011;6377;42.836;23.998;2023-06-14T07:37:34;4.57;;;3.37;;
12623;SDS011;6377;42.836;23.998;2023-06-14T07:40:02;5.60;;;3.60;;
12623;SDS011;6377;42.836;23.998;2023-06-14T07:42:32;3.83;;;3.35;;
12623;SDS011;6377;42.836;23.998;2023-06-14T07:45:00;4.50;;;3.70;;
12623;SDS011;6377;42.836;23.998;2023-06-14T07:47:28;3.83;;;3.43;;
12623;SDS011;6377;42.836;23.998;2023-06-14T07:49:57;4.87;;;3.97;;
12623;SDS011;6377;42.836;23.998;2023-06-14T07:52:25;5.32;;;4.40;;
12623;SDS011;6377;42.836;23.998;2023-06-14T07:54:52;5.00;;;4.00;;
12623;SDS011;6377;42.836;23.998;2023-06-14T07:57:20;4.60;;;3.25;;
12623;SDS011;6377;42.836;23.998;2023-06-14T08:04:59;4.57;;;3.20;;
12623;SDS011;6377;42.836;23.998;2023-06-14T08:07:27;5.00;;;3.50;;
12623;SDS011;6377;42.836;23.998;2023-06-14T08:09:59;3.53;;;3.22;;
12623;SDS011;6377;42.836;23.998;2023-06-14T08:15:02;5.77;;;4.03;;
12623;SDS011;6377;42.836;23.998;2023-06-14T08:17:30;5.45;;;3.92;;
12623;SDS011;6377;42.836;23.998;2023-06-14T08:22:34;4.63;;;3.47;;
12623;SDS011;6377;42.836;23.998;2023-06-14T08:25:02;5.72;;;4.10;;
12623;SDS011;6377;42.836;23.998;2023-06-14T08:27:31;4.50;;;4.10;;
12623;SDS011;6377;42.836;23.998;2023-06-14T08:29:59;3.97;;;3.58;;
12623;SDS011;6377;42.836;23.998;2023-06-14T08:32:27;6.70;;;4.22;;
12623;SDS011;6377;42.836;23.998;2023-06-14T08:34:55;5.57;;;4.20;;
12623;SDS011;6377;42.836;23.998;2023-06-14T08:37:22;6.77;;;4.60;;
12623;SDS011;6377;42.836;23.998;2023-06-14T08:39:51;5.28;;;4.38;;
12623;SDS011;6377;42.836;23.998;2023-06-14T08:44:54;4.97;;;4.25;;
12623;SDS011;6377;42.836;23.998;2023-06-14T08:47:22;4.20;;;3.80;;
12623;SDS011;6377;42.836;23.998;2023-06-14T08:49:52;5.43;;;4.47;;
12623;SDS011;6377;42.836;23.998;2023-06-14T08:52:22;5.72;;;3.83;;
12623;SDS011;6377;42.836;23.998;2023-06-14T08:54:56;5.75;;;3.97;;
12623;SDS011;6377;42.836;23.998;2023-06-14T08:57:24;4.47;;;3.80;;
12623;SDS011;6377;42.836;23.998;2023-06-14T09:05:07;4.10;;;3.70;;
12623;SDS011;6377;42.836;23.998;2023-06-14T09:07:39;5.57;;;3.92;;
12623;SDS011;6377;42.836;23.998;2023-06-14T09:10:12;4.40;;;3.85;;
12623;SDS011;6377;42.836;23.998;2023-06-14T09:12:44;7.85;;;3.90;;
12623;SDS011;6377;42.836;23.998;2023-06-14T09:15:12;4.40;;;3.97;;
12623;SDS011;6377;42.836;23.998;2023-06-14T09:17:40;5.28;;;4.28;;
12623;SDS011;6377;42.836;23.998;2023-06-14T09:20:09;4.60;;;4.20;;
12623;SDS011;6377;42.836;23.998;2023-06-14T09:27:51;4.03;;;3.67;;
12623;SDS011;6377;42.836;23.998;2023-06-14T09:30:19;5.18;;;4.55;;
12623;SDS011;6377;42.836;23.998;2023-06-14T09:32:47;4.53;;;4.13;;
12623;SDS011;6377;42.836;23.998;2023-06-14T09:35:16;4.40;;;4.00;;
12623;SDS011;6377;42.836;23.998;2023-06-14T09:37:45;5.00;;;4.50;;
12623;SDS011;6377;42.836;23.998;2023-06-14T09:40:13;5.38;;;4.53;;
12623;SDS011;6377;42.836;23.998;2023-06-14T09:42:49;5.07;;;4.57;;
12623;SDS011;6377;42.836;23.998;2023-06-14T09:45:17;4.43;;;4.03;;
12623;SDS011;6377;42.836;23.998;2023-06-14T09:47:47;5.60;;;4.95;;
12623;SDS011;6377;42.836;23.998;2023-06-14T09:50:15;5.07;;;4.60;;
12623;SDS011;6377;42.836;23.998;2023-06-14T09:55:38;5.25;;;4.63;;
12623;SDS011;6377;42.836;23.998;2023-06-14T09:58:09;7.15;;;5.25;;
12623;SDS011;6377;42.836;23.998;2023-06-14T10:00:38;7.00;;;4.75;;
12623;SDS011;6377;42.836;23.998;2023-06-14T10:08:16;5.20;;;4.70;;
12623;SDS011;6377;42.836;23.998;2023-06-14T10:13:22;5.15;;;4.65;;
12623;SDS011;6377;42.836;23.998;2023-06-14T10:15:52;5.95;;;4.47;;
12623;SDS011;6377;42.836;23.998;2023-06-14T10:18:28;5.28;;;4.55;;
12623;SDS011;6377;42.836;23.998;2023-06-14T10:21:08;5.20;;;4.32;;
12623;SDS011;6377;42.836;23.998;2023-06-14T10:23:42;5.82;;;4.68;;
12623;SDS011;6377;42.836;23.998;2023-06-14T10:26:17;5.13;;;4.63;;
12623;SDS011;6377;42.836;23.998;2023-06-14T10:28:57;4.93;;;4.38;;
12623;SDS011;6377;42.836;23.998;2023-06-14T10:31:41;6.10;;;4.82;;
12623;SDS011;6377;42.836;23.998;2023-06-14T10:34:10;5.55;;;4.95;;
12623;SDS011;6377;42.836;23.998;2023-06-14T10:36:41;5.40;;;4.90;;
12623;SDS011;6377;42.836;23.998;2023-06-14T10:44:34;5.57;;;4.80;;
12623;SDS011;6377;42.836;23.998;2023-06-14T10:49:52;8.18;;;4.57;;
12623;SDS011;6377;42.836;23.998;2023-06-14T10:52:21;5.00;;;4.50;;
12623;SDS011;6377;42.836;23.998;2023-06-14T10:54:58;4.95;;;4.45;;
12623;SDS011;6377;42.836;23.998;2023-06-14T10:57:31;4.60;;;4.20;;
12623;SDS011;6377;42.836;23.998;2023-06-14T11:00:01;5.28;;;4.60;;
12623;SDS011;6377;42.836;23.998;2023-06-14T11:05:50;4.95;;;4.45;;
12623;SDS011;6377;42.836;23.998;2023-06-14T11:08:25;4.85;;;4.35;;
12623;SDS011;6377;42.836;23.998;2023-06-14T11:10:57;5.68;;;5.07;;
12623;SDS011;6377;42.836;23.998;2023-06-14T11:13:26;5.57;;;4.97;;
12623;SDS011;6377;42.836;23.998;2023-06-14T11:15:55;4.85;;;4.35;;
12623;SDS011;6377;42.836;23.998;2023-06-14T11:18:23;5.25;;;4.75;;
12623;SDS011;6377;42.836;23.998;2023-06-14T11:20:52;5.53;;;4.40;;
12623;SDS011;6377;42.836;23.998;2023-06-14T11:23:20;5.10;;;4.60;;
12623;SDS011;6377;42.836;23.998;2023-06-14T11:25:49;5.10;;;4.60;;
12623;SDS011;6377;42.836;23.998;2023-06-14T11:28:17;5.45;;;4.95;;
12623;SDS011;6377;42.836;23.998;2023-06-14T11:30:46;5.68;;;4.57;;
12623;SDS011;6377;42.836;23.998;2023-06-14T11:33:18;5.07;;;4.68;;
12623;SDS011;6377;42.836;23.998;2023-06-14T11:35:45;6.13;;;4.82;;
12623;SDS011;6377;42.836;23.998;2023-06-14T11:38:12;7.07;;;4.70;;
12623;SDS011;6377;42.836;23.998;2023-06-14T11:40:40;4.70;;;4.30;;
12623;SDS011;6377;42.836;23.998;2023-06-14T11:43:07;7.22;;;4.75;;
12623;SDS011;6377;42.836;23.998;2023-06-14T11:45:34;5.47;;;4.40;;
12623;SDS011;6377;42.836;23.998;2023-06-14T11:48:02;4.43;;;4.03;;
12623;SDS011;6377;42.836;23.998;2023-06-14T11:50:31;4.57;;;4.18;;
12623;SDS011;6377;42.836;23.998;2023-06-14T11:52:59;4.75;;;4.35;;
12623;SDS011;6377;42.836;23.998;2023-06-14T11:55:32;5.43;;;4.32;;
12623;SDS011;6377;42.836;23.998;2023-06-14T12:00:55;5.20;;;4.75;;
12623;SDS011;6377;42.836;23.998;2023-06-14T12:03:23;5.60;;;5.05;;
12623;SDS011;6377;42.836;23.998;2023-06-14T12:05:52;14.70;;;12.88;;
12623;SDS011;6377;42.836;23.998;2023-06-14T12:08:32;6.25;;;5.65;;
12623;SDS011;6377;42.836;23.998;2023-06-14T12:11:04;5.00;;;4.50;;
12623;SDS011;6377;42.836;23.998;2023-06-14T12:13:33;5.13;;;4.43;;
12623;SDS011;6377;42.836;23.998;2023-06-14T12:16:04;4.65;;;4.25;;
12623;SDS011;6377;42.836;23.998;2023-06-14T12:18:32;9.10;;;4.57;;
12623;SDS011;6377;42.836;23.998;2023-06-14T12:21:02;5.75;;;4.05;;
12623;SDS011;6377;42.836;23.998;2023-06-14T12:23:44;7.00;;;4.88;;
12623;SDS011;6377;42.836;23.998;2023-06-14T12:26:13;4.90;;;4.40;;
12623;SDS011;6377;42.836;23.998;2023-06-14T12:28:41;4.72;;;4.30;;
12623;SDS011;6377;42.836;23.998;2023-06-14T12:31:10;4.75;;;4.22;;
12623;SDS011;6377;42.836;23.998;2023-06-14T12:33:38;5.00;;;4.25;;
12623;SDS011;6377;42.836;23.998;2023-06-14T12:36:08;4.38;;;3.92;;
12623;SDS011;6377;42.836;23.998;2023-06-14T12:38:37;4.50;;;4.03;;
12623;SDS011;6377;42.836;23.998;2023-06-14T12:41:05;5.32;;;4.18;;
12623;SDS011;6377;42.836;23.998;2023-06-14T12:43:32;6.53;;;4.50;;
12623;SDS011;6377;42.836;23.998;2023-06-14T12:46:00;5.22;;;4.72;;
12623;SDS011;6377;42.836;23.998;2023-06-14T12:48:27;9.13;;;4.88;;
12623;SDS011;6377;42.836;23.998;2023-06-14T12:50:56;5.20;;;4.20;;
12623;SDS011;6377;42.836;23.998;2023-06-14T12:53:25;5.85;;;4.65;;
12623;SDS011;6377;42.836;23.998;2023-06-14T12:55:52;5.43;;;4.20;;
12623;SDS011;6377;42.836;23.998;2023-06-14T12:58:20;6.38;;;4.32;;
12623;SDS011;6377;42.836;23.998;2023-06-14T13:00:49;6.28;;;4.45;;
12623;SDS011;6377;42.836;23.998;2023-06-14T13:03:16;6.15;;;4.10;;
12623;SDS011;6377;42.836;23.998;2023-06-14T13:05:44;7.25;;;4.68;;
12623;SDS011;6377;42.836;23.998;2023-06-14T13:08:11;7.75;;;4.13;;
12623;SDS011;6377;42.836;23.998;2023-06-14T13:10:40;4.63;;;4.22;;
12623;SDS011;6377;42.836;23.998;2023-06-14T13:13:07;4.47;;;3.88;;
12623;SDS011;6377;42.836;23.998;2023-06-14T13:15:37;5.60;;;3.92;;
12623;SDS011;6377;42.836;23.998;2023-06-14T13:20:40;4.78;;;4.10;;
12623;SDS011;6377;42.836;23.998;2023-06-14T13:23:08;4.10;;;3.80;;
12623;SDS011;6377;42.836;23.998;2023-06-14T13:25:36;3.95;;;3.30;;
12623;SDS011;6377;42.836;23.998;2023-06-14T13:28:05;4.30;;;3.90;;
12623;SDS011;6377;42.836;23.998;2023-06-14T13:30:33;4.30;;;3.90;;
12623;SDS011;6377;42.836;23.998;2023-06-14T13:33:00;3.70;;;3.40;;
12623;SDS011;6377;42.836;23.998;2023-06-14T13:35:28;4.00;;;3.60;;
12623;SDS011;6377;42.836;23.998;2023-06-14T13:38:02;3.95;;;3.58;;
12623;SDS011;6377;42.836;23.998;2023-06-14T13:40:29;5.47;;;3.80;;
12623;SDS011;6377;42.836;23.998;2023-06-14T13:42:57;5.80;;;3.88;;
12623;SDS011;6377;42.836;23.998;2023-06-14T13:45:26;4.72;;;4.03;;
12623;SDS011;6377;42.836;23.998;2023-06-14T13:47:53;7.90;;;4.35;;
12623;SDS011;6377;42.836;23.998;2023-06-14T13:50:20;4.22;;;3.83;;
12623;SDS011;6377;42.836;23.998;2023-06-14T13:52:48;4.05;;;3.45;;
12623;SDS011;6377;42.836;23.998;2023-06-14T13:55:15;4.00;;;3.60;;
12623;SDS011;6377;42.836;23.998;2023-06-14T13:57:42;3.88;;;3.47;;
12623;SDS011;6377;42.836;23.998;2023-06-14T14:00:10;3.83;;;3.42;;
12623;SDS011;6377;42.836;23.998;2023-06-14T14:02:40;4.10;;;3.70;;
12623;SDS011;6377;42.836;23.998;2023-06-14T14:05:08;4.50;;;4.10;;
12623;SDS011;6377;42.836;23.998;2023-06-14T14:07:35;4.22;;;3.83;;
12623;SDS011;6377;42.836;23.998;2023-06-14T14:10:03;4.07;;;3.78;;
12623;SDS011;6377;42.836;23.998;2023-06-14T14:12:31;4.45;;;3.83;;
12623;SDS011;6377;42.836;23.998;2023-06-14T14:14:58;3.83;;;3.53;;
12623;SDS011;6377;42.836;23.998;2023-06-14T14:17:25;4.10;;;3.70;;
12623;SDS011;6377;42.836;23.998;2023-06-14T14:19:54;4.10;;;3.55;;
12623;SDS011;6377;42.836;23.998;2023-06-14T14:22:21;5.68;;;3.80;;
12623;SDS011;6377;42.836;23.998;2023-06-14T14:24:48;7.03;;;4.32;;
12623;SDS011;6377;42.836;23.998;2023-06-14T14:27:19;5.03;;;4.28;;
12623;SDS011;6377;42.836;23.998;2023-06-14T14:29:46;4.60;;;4.15;;
12623;SDS011;6377;42.836;23.998;2023-06-14T14:32:13;4.40;;;4.00;;
12623;SDS011;6377;42.836;23.998;2023-06-14T14:34:40;6.03;;;3.95;;
12623;SDS011;6377;42.836;23.998;2023-06-14T14:37:09;5.07;;;4.00;;
12623;SDS011;6377;42.836;23.998;2023-06-14T14:39:36;4.28;;;3.88;;
12623;SDS011;6377;42.836;23.998;2023-06-14T14:42:04;7.70;;;3.95;;
12623;SDS011;6377;42.836;23.998;2023-06-14T14:44:33;4.38;;;3.97;;
12623;SDS011;6377;42.836;23.998;2023-06-14T14:47:00;4.65;;;4.20;;
12623;SDS011;6377;42.836;23.998;2023-06-14T14:49:28;4.28;;;3.88;;
12623;SDS011;6377;42.836;23.998;2023-06-14T14:51:55;8.00;;;4.70;;
12623;SDS011;6377;42.836;23.998;2023-06-14T14:54:25;6.13;;;4.38;;
12623;SDS011;6377;42.836;23.998;2023-06-14T14:56:54;5.63;;;4.68;;
12623;SDS011;6377;42.836;23.998;2023-06-14T14:59:21;8.00;;;5.35;;
12623;SDS011;6377;42.836;23.998;2023-06-14T15:01:49;6.75;;;4.65;;
12623;SDS011;6377;42.836;23.998;2023-06-14T15:04:16;5.72;;;4.55;;
12623;SDS011;6377;42.836;23.998;2023-06-14T15:06:43;5.07;;;4.28;;
12623;SDS011;6377;42.836;23.998;2023-06-14T15:09:13;7.47;;;4.82;;
12623;SDS011;6377;42.836;23.998;2023-06-14T15:11:42;8.27;;;6.25;;
12623;SDS011;6377;42.836;23.998;2023-06-14T15:14:12;10.18;;;5.88;;
12623;SDS011;6377;42.836;23.998;2023-06-14T15:16:40;12.50;;;6.93;;
12623;SDS011;6377;42.836;23.998;2023-06-14T15:21:53;7.25;;;5.30;;
12623;SDS011;6377;42.836;23.998;2023-06-14T15:24:22;14.43;;;8.50;;
12623;SDS011;6377;42.836;23.998;2023-06-14T15:26:51;9.85;;;6.07;;
12623;SDS011;6377;42.836;23.998;2023-06-14T15:29:19;8.27;;;6.93;;
12623;SDS011;6377;42.836;23.998;2023-06-14T15:31:46;13.73;;;9.67;;
12623;SDS011;6377;42.836;23.998;2023-06-14T15:34:14;11.75;;;7.00;;
12623;SDS011;6377;42.836;23.998;2023-06-14T15:36:41;19.63;;;14.30;;
12623;SDS011;6377;42.836;23.998;2023-06-14T15:39:08;3.93;;;3.53;;
12623;SDS011;6377;42.836;23.998;2023-06-14T15:41:35;5.63;;;3.97;;
12623;SDS011;6377;42.836;23.998;2023-06-14T15:44:04;6.47;;;3.93;;
12623;SDS011;6377;42.836;23.998;2023-06-14T15:46:31;4.63;;;3.03;;
12623;SDS011;6377;42.836;23.998;2023-06-14T15:48:58;2.90;;;2.40;;
12623;SDS011;6377;42.836;23.998;2023-06-14T15:51:25;5.77;;;4.07;;
12623;SDS011;6377;42.836;23.998;2023-06-14T15:53:53;5.57;;;4.60;;
12623;SDS011;6377;42.836;23.998;2023-06-14T15:56:20;4.87;;;3.80;;
12623;SDS011;6377;42.836;23.998;2023-06-14T15:58:47;5.63;;;3.33;;
12623;SDS011;6377;42.836;23.998;2023-06-14T16:01:16;7.90;;;4.17;;